createdAt,value
2024-05-09T00:05:45.377Z,9.54
2024-05-09T00:11:48.289Z,9.53
2024-05-09T00:17:50.795Z,9.56
2024-05-09T00:23:53.563Z,9.52
2024-05-09T00:29:57.001Z,9.49
2024-05-09T00:36:00.370Z,9.45
2024-05-09T00:42:02.714Z,9.48
2024-05-09T00:48:09.535Z,9.43
2024-05-09T00:54:13.059Z,9.42
2024-05-09T01:00:26.068Z,9.43
2024-05-09T01:06:33.457Z,9.45
2024-05-09T01:12:35.879Z,9.41
2024-05-09T01:18:38.386Z,9.41
2024-05-09T01:24:40.757Z,9.38
2024-05-09T01:30:43.098Z,9.40
2024-05-09T01:36:45.434Z,9.36
2024-05-09T01:42:47.869Z,9.38
2024-05-09T01:48:51.570Z,9.39
2024-05-09T01:54:54.915Z,9.42
2024-05-09T02:00:57.280Z,9.43
2024-05-09T02:06:59.749Z,9.41
2024-05-09T02:13:02.140Z,9.41
2024-05-09T02:19:04.778Z,9.44
2024-05-09T02:25:07.324Z,9.45
2024-05-09T02:31:13.439Z,9.46
2024-05-09T02:37:15.735Z,9.43
2024-05-09T02:43:18.062Z,9.45
2024-05-09T02:49:20.520Z,9.42
2024-05-09T02:55:22.898Z,9.39
2024-05-09T03:01:25.907Z,9.36
2024-05-09T03:07:28.343Z,9.30
2024-05-09T03:13:30.747Z,9.33
2024-05-09T03:19:36.199Z,9.28
2024-05-09T03:25:39.925Z,9.28
2024-05-09T03:31:42.287Z,9.27
2024-05-09T03:37:45.809Z,9.27
2024-05-09T03:43:48.152Z,9.29
2024-05-09T03:49:59.924Z,9.30
2024-05-09T03:56:04.604Z,9.34
2024-05-09T04:02:08.117Z,9.36
2024-05-09T04:08:11.317Z,9.40
2024-05-09T04:14:14.045Z,9.41
2024-05-09T04:20:28.789Z,9.43
2024-05-09T04:26:38.739Z,9.53
2024-05-09T04:32:41.045Z,9.64
2024-05-09T04:38:43.485Z,9.78
2024-05-09T04:44:45.896Z,9.97
2024-05-09T04:50:48.336Z,10.12
2024-05-09T04:56:52.034Z,10.20
2024-05-09T05:03:00.497Z,10.38
2024-05-09T05:09:03.084Z,10.75
2024-05-09T05:15:06.732Z,11.17
2024-05-09T05:21:09.104Z,11.78
2024-05-09T05:27:11.792Z,12.04
2024-05-09T05:33:25.237Z,12.23
2024-05-09T05:39:30.359Z,12.47
2024-05-09T05:45:32.682Z,12.47
2024-05-09T05:51:36.122Z,12.74
2024-05-09T05:57:38.496Z,13.50
2024-05-09T06:03:41.434Z,14.46
2024-05-09T06:09:45.343Z,15.72
2024-05-09T06:15:49.132Z,16.97
2024-05-09T06:21:51.469Z,17.66
2024-05-09T06:27:53.883Z,20.69
2024-05-09T06:33:56.293Z,22.72
2024-05-09T06:39:58.655Z,23.64
2024-05-09T06:46:02.171Z,24.92
2024-05-09T06:52:09.683Z,25.02
2024-05-09T06:58:12.812Z,25.63
2024-05-09T07:04:15.536Z,25.42
2024-05-09T07:10:25.805Z,25.81
2024-05-09T07:16:34.869Z,25.46
2024-05-09T07:22:37.597Z,24.58
2024-05-09T07:28:39.892Z,21.97
2024-05-09T07:34:42.350Z,25.48
2024-05-09T07:40:46.101Z,27.61
2024-05-09T07:47:48.761Z,25.94
2024-05-09T07:53:37.107Z,23.71
2024-05-09T07:59:37.166Z,26.34
2024-05-09T08:05:41.504Z,26.59
2024-05-09T08:11:45.108Z,24.50
2024-05-09T08:17:47.539Z,26.66
2024-05-09T08:23:49.931Z,23.47
2024-05-09T08:29:53.017Z,21.27
2024-05-09T08:35:56.234Z,21.66
2024-05-09T08:41:58.542Z,22.23
2024-05-09T08:48:07.669Z,23.77
2024-05-09T08:54:11.500Z,24.60
2024-05-09T09:00:21.629Z,25.75
2024-05-09T09:06:33.594Z,24.89
2024-05-09T09:12:36.193Z,24.44
2024-05-09T09:18:38.894Z,23.74
2024-05-09T09:24:41.882Z,22.98
2024-05-09T09:30:45.555Z,22.12
2024-05-09T09:36:49.897Z,20.98
2024-05-09T09:42:57.806Z,20.81
2024-05-09T09:49:00.999Z,21.00
2024-05-09T09:55:06.074Z,20.41
2024-05-09T10:01:08.796Z,19.87
2024-05-09T10:07:13.892Z,19.96
2024-05-09T10:13:16.556Z,20.03
2024-05-09T10:19:27.008Z,19.75
2024-05-09T10:25:29.500Z,19.53
2024-05-09T10:31:32.485Z,19.16
2024-05-09T10:37:36.935Z,19.39
2024-05-09T10:43:43.527Z,19.96
2024-05-09T10:50:25.802Z,19.76
2024-05-09T10:56:35.600Z,19.72
2024-05-09T11:02:38.100Z,18.30
2024-05-09T11:08:42.688Z,17.86
2024-05-09T11:14:55.459Z,17.21
2024-05-09T11:20:58.442Z,16.69
2024-05-09T11:27:03.439Z,16.47
2024-05-09T11:33:06.188Z,16.14
2024-05-09T11:39:09.073Z,16.07
2024-05-09T11:45:11.481Z,15.88
2024-05-09T11:51:13.780Z,16.04
2024-05-09T11:57:16.530Z,16.19
2024-05-09T12:03:18.987Z,16.62
2024-05-09T12:09:22.346Z,17.15
2024-05-09T12:15:24.639Z,17.63
2024-05-09T12:21:27.954Z,18.29
2024-05-09T12:27:30.403Z,18.90
2024-05-09T12:33:32.948Z,19.93
2024-05-09T12:39:35.499Z,20.28
2024-05-09T12:45:40.504Z,20.56
2024-05-09T12:51:43.025Z,21.13
2024-05-09T12:57:45.455Z,21.42
2024-05-09T13:03:48.030Z,21.53
2024-05-09T13:09:51.798Z,21.72
2024-05-09T13:15:54.324Z,21.51
2024-05-09T13:21:57.485Z,21.60
2024-05-09T13:28:01.135Z,22.48
2024-05-09T13:34:10.927Z,24.14
2024-05-09T13:40:14.603Z,25.05
2024-05-09T13:46:18.195Z,24.93
2024-05-09T13:52:21.114Z,24.71
2024-05-09T13:58:24.543Z,24.71
2024-05-09T14:04:27.384Z,23.99
2024-05-09T14:10:31.898Z,23.90
2024-05-09T14:16:36.567Z,25.11
2024-05-09T14:22:41.239Z,25.42
2024-05-09T14:28:43.536Z,23.57
2024-05-09T14:34:46.037Z,21.17
2024-05-09T14:40:48.870Z,20.23
2024-05-09T14:46:51.361Z,20.20
2024-05-09T14:53:44.889Z,19.93
2024-05-09T14:59:50.104Z,18.97
2024-05-09T15:05:52.689Z,18.80
2024-05-09T15:11:56.557Z,18.88
2024-05-09T15:18:00.324Z,18.61
2024-05-09T15:24:02.891Z,18.52
2024-05-09T15:30:10.233Z,18.46
2024-05-09T15:36:13.625Z,19.07
2024-05-09T15:42:16.354Z,18.74
2024-05-09T15:48:19.110Z,18.80
2024-05-09T15:54:23.658Z,18.96
2024-05-09T16:00:36.505Z,18.95
2024-05-09T16:06:47.972Z,18.93
2024-05-09T16:12:52.357Z,18.91
2024-05-09T16:18:55.058Z,18.38
2024-05-09T16:24:57.421Z,17.66
2024-05-09T16:31:01.542Z,17.11
2024-05-09T16:37:06.648Z,16.88
2024-05-09T16:43:13.434Z,16.53
2024-05-09T16:49:16.065Z,16.36
2024-05-09T16:55:21.279Z,16.18
2024-05-09T17:01:24.086Z,16.20
2024-05-09T17:07:26.454Z,16.23
2024-05-09T17:13:29.352Z,16.23
2024-05-09T17:19:31.745Z,16.11
2024-05-09T17:25:35.761Z,15.95
2024-05-09T17:31:38.211Z,15.92
2024-05-09T17:37:40.588Z,15.81
2024-05-09T17:43:42.877Z,15.66
2024-05-09T17:49:45.019Z,15.38
2024-05-09T17:55:48.872Z,15.20
2024-05-09T18:01:51.608Z,14.95
2024-05-09T18:07:54.383Z,14.65
2024-05-09T18:13:58.579Z,14.36
2024-05-09T18:20:00.939Z,14.06
2024-05-09T18:26:06.538Z,13.74
2024-05-09T18:32:09.062Z,13.44
2024-05-09T18:38:11.448Z,13.11
2024-05-09T18:44:14.178Z,12.79
2024-05-09T18:50:24.645Z,12.46
2024-05-09T18:56:35.083Z,12.23
2024-05-09T19:02:38.680Z,12.00
2024-05-09T19:08:41.164Z,11.75
2024-05-09T19:14:44.838Z,11.51
2024-05-09T19:20:47.284Z,11.25
2024-05-09T19:26:49.686Z,11.11
2024-05-09T19:32:52.050Z,10.98
2024-05-09T19:38:54.587Z,10.80
2024-05-09T19:44:57.830Z,10.61
2024-05-09T19:51:00.821Z,10.46
2024-05-09T19:57:04.414Z,10.24
2024-05-09T20:03:06.892Z,10.07
2024-05-09T20:09:09.528Z,9.90
2024-05-09T20:15:24.969Z,9.75
2024-05-09T20:21:30.527Z,9.59
2024-05-09T20:27:37.869Z,9.48
2024-05-09T20:33:41.698Z,9.36
2024-05-09T20:39:44.139Z,9.24
2024-05-09T20:45:46.895Z,9.10
2024-05-09T20:51:49.264Z,8.99
2024-05-09T20:57:52.220Z,8.88
2024-05-09T21:03:54.709Z,8.75
2024-05-09T21:09:57.759Z,8.66
2024-05-09T21:16:00.190Z,8.57
2024-05-09T21:22:02.752Z,8.43
2024-05-09T21:28:06.160Z,8.31
2024-05-09T21:34:09.991Z,8.18
2024-05-09T21:40:17.010Z,8.10
2024-05-09T21:46:26.619Z,7.97
2024-05-09T21:52:29.326Z,7.85
2024-05-09T21:58:33.041Z,7.76
2024-05-09T22:04:35.492Z,7.62
2024-05-09T22:10:39.515Z,7.52
2024-05-09T22:16:42.701Z,7.43
2024-05-09T22:22:45.401Z,7.35
2024-05-09T22:28:49.939Z,7.24
2024-05-09T22:34:52.313Z,7.17
2024-05-09T22:40:55.246Z,7.12
2024-05-09T22:46:58.765Z,7.04
2024-05-09T22:53:01.387Z,6.96
2024-05-09T22:59:03.775Z,6.89
2024-05-09T23:05:06.477Z,6.81
2024-05-09T23:11:10.219Z,6.73
2024-05-09T23:17:13.802Z,6.69
2024-05-09T23:23:16.159Z,6.62
2024-05-09T23:29:19.683Z,6.56
2024-05-09T23:35:22.071Z,6.48
2024-05-09T23:41:24.695Z,6.43
2024-05-09T23:47:27.038Z,6.36
2024-05-09T23:53:29.673Z,6.30
2024-05-09T23:59:34.896Z,6.21
